Snodland, United Kingdom
Current Conditions -  °F | °C
As of 8:50 AM on Saturday 29 Nov 2014 (Local Time) from EGKB Reporting Station
Clear Clear  
Wind Chill: 50°   Ceiling: Unl
Heat Index: 50°   Visibility: 5mi
Dew Point: 45°   Wind: 7mph
Humidity: 82%   Direction: 120°ESE
Pressure: 29.83"   Gusts: NA
Location:  51.33°N, 0.44°E
Report Text: EGKB 290850Z 12006KT 8000 NSC 10/07 Q1010
Loading
Personal Weather Stations






























Interactive Weather Map New forecast layout! Learn more

10-Day Weather Forecast

Advertisements
Track Severe Weather on mobile